Time;durP1;ratioP1;P1;durP2;ratioP2;P2;SDS_P1;SDS_P2;PMS_P1;PMS_P2;Temp;Humidity;BMP_temperature;BMP_pressure;BME280_temperature;BME280_humidity;BME280_pressure;Samples;Min_cycle;Max_cycle;Signal;HPM_P1;HPM_P2
2021/11/19 00:00:08;;;;;;;3.95;3.55;;;7.90;99.90;;;;;;7387696;19;20333;-81
2021/11/19 00:02:59;;;;;;;7.05;3.70;;;7.90;99.90;;;;;;7412667;19;20358;-81
2021/11/19 00:05:40;;;;;;;9.20;3.43;;;7.90;99.90;;;;;;7405128;19;20366;-81
2021/11/19 00:08:35;;;;;;;5.28;3.03;;;8.00;99.90;;;;;;7376529;19;20346;-81
2021/11/19 00:11:34;;;;;;;3.53;3.00;;;8.10;99.90;;;;;;7343911;19;20363;-80
2021/11/19 00:14:09;;;;;;;6.32;3.53;;;8.00;99.90;;;;;;7395627;19;20391;-79
2021/11/19 00:16:57;;;;;;;4.30;3.28;;;8.20;99.90;;;;;;7389136;19;20305;-81
2021/11/19 00:22:50;;;;;;;4.23;3.10;;;8.00;99.90;;;;;;7397533;19;20408;-81
2021/11/19 00:25:55;;;;;;;6.18;3.15;;;8.10;99.90;;;;;;7347334;19;20317;-81
2021/11/19 00:28:25;;;;;;;5.90;3.25;;;8.10;99.90;;;;;;7389411;19;20509;-80
2021/11/19 00:31:07;;;;;;;6.05;3.08;;;8.10;99.90;;;;;;7303762;19;2004474;-80
2021/11/19 00:34:12;;;;;;;5.10;3.35;;;8.20;99.90;;;;;;7335589;19;20375;-80
2021/11/19 00:36:38;;;;;;;3.90;3.10;;;8.30;99.90;;;;;;7294090;19;2004325;-81
2021/11/19 00:39:32;;;;;;;7.43;3.97;;;8.20;99.90;;;;;;7392591;19;20303;-81
2021/11/19 00:42:11;;;;;;;3.53;3.15;;;8.20;99.90;;;;;;7414813;19;20320;-81
2021/11/19 00:45:17;;;;;;;7.43;3.97;;;8.20;99.90;;;;;;7308909;19;2004464;-80
2021/11/19 00:51:25;;;;;;;5.25;3.22;;;8.20;99.90;;;;;;7425929;19;20393;-80
2021/11/19 00:54:04;;;;;;;4.10;3.08;;;8.20;99.90;;;;;;7394953;19;20352;-80
2021/11/19 00:56:53;;;;;;;6.80;4.10;;;8.20;99.90;;;;;;7411842;19;20340;-80
2021/11/19 00:59:22;;;;;;;4.73;3.60;;;8.20;99.90;;;;;;7394447;19;20324;-79
2021/11/19 01:02:00;;;;;;;5.25;3.65;;;8.20;99.90;;;;;;7407239;19;20328;-80
2021/11/19 01:04:27;;;;;;;4.85;3.60;;;8.20;99.90;;;;;;7387487;19;20327;-80
2021/11/19 01:07:27;;;;;;;5.60;3.50;;;8.20;99.90;;;;;;7407447;19;20339;-80
2021/11/19 01:09:57;;;;;;;6.88;4.05;;;8.20;99.90;;;;;;7283444;19;2004483;-80
2021/11/19 01:12:35;;;;;;;5.53;3.25;;;8.30;99.90;;;;;;7407288;19;20316;-81
2021/11/19 01:15:16;;;;;;;5.20;3.47;;;8.30;99.90;;;;;;7390714;19;20372;-80
2021/11/19 01:17:51;;;;;;;6.00;3.53;;;8.40;99.90;;;;;;7340242;19;20317;-80
2021/11/19 01:21:00;;;;;;;6.00;3.47;;;8.40;99.90;;;;;;7400783;19;20424;-80
2021/11/19 01:23:41;;;;;;;4.25;3.85;;;8.40;99.90;;;;;;7202912;19;2004447;-80
2021/11/19 01:26:14;;;;;;;5.03;3.42;;;8.40;99.90;;;;;;7388100;19;20312;-79
2021/11/19 01:28:56;;;;;;;4.57;3.25;;;8.60;99.90;;;;;;7250555;19;2004481;-80
2021/11/19 01:31:36;;;;;;;4.18;2.92;;;8.40;99.90;;;;;;7304021;19;2004472;-80
2021/11/19 01:34:19;;;;;;;4.50;3.47;;;8.40;99.90;;;;;;7305824;19;2004457;-80
2021/11/19 01:37:06;;;;;;;5.50;3.37;;;8.40;99.90;;;;;;7403311;19;20352;-80
2021/11/19 01:40:23;;;;;;;5.90;3.67;;;8.40;99.90;;;;;;7297674;19;2004462;-80
2021/11/19 01:43:02;;;;;;;5.47;3.60;;;8.50;99.90;;;;;;7305780;19;2004488;-80
2021/11/19 01:45:43;;;;;;;3.92;3.38;;;8.50;99.90;;;;;;7299484;19;2006286;-81
2021/11/19 01:48:13;;;;;;;3.60;3.20;;;8.50;99.90;;;;;;7398116;19;20315;-81
2021/11/19 01:50:48;;;;;;;5.18;3.47;;;8.50;99.90;;;;;;7380349;19;20356;-80
2021/11/19 01:53:37;;;;;;;3.80;3.30;;;8.50;99.90;;;;;;7402417;19;20335;-81
2021/11/19 01:56:34;;;;;;;7.85;3.78;;;8.50;99.90;;;;;;7401362;19;20346;-80
2021/11/19 01:59:13;;;;;;;5.63;3.40;;;8.50;99.90;;;;;;7304252;19;2005515;-81
2021/11/19 02:01:57;;;;;;;3.80;3.38;;;8.50;99.90;;;;;;7384584;19;20328;-80
2021/11/19 02:05:02;;;;;;;6.20;3.40;;;8.60;99.90;;;;;;7402453;19;20325;-80
2021/11/19 02:07:44;;;;;;;4.13;3.58;;;8.60;99.90;;;;;;7406191;19;20332;-81
2021/11/19 02:10:23;;;;;;;7.13;3.55;;;8.60;99.90;;;;;;7399390;19;20324;-80
2021/11/19 02:12:56;;;;;;;5.60;3.55;;;8.70;99.90;;;;;;7384672;19;20324;-80
2021/11/19 02:15:34;;;;;;;5.88;3.40;;;8.60;99.90;;;;;;7408403;19;20392;-81
2021/11/19 02:18:15;;;;;;;3.93;3.53;;;8.70;99.90;;;;;;7402817;19;20352;-80
2021/11/19 02:20:47;;;;;;;5.78;3.78;;;8.70;99.90;;;;;;7406983;19;20312;-80
2021/11/19 02:23:36;;;;;;;4.10;3.50;;;8.60;99.90;;;;;;7365899;19;20340;-80
2021/11/19 02:26:07;;;;;;;4.20;3.60;;;8.60;99.90;;;;;;7379583;19;20337;-81
2021/11/19 02:28:42;;;;;;;4.82;3.55;;;8.60;99.90;;;;;;7403414;19;20333;-80
2021/11/19 02:31:23;;;;;;;4.10;3.70;;;8.50;99.90;;;;;;7395668;19;20371;-81
2021/11/19 02:34:05;;;;;;;3.90;3.50;;;8.60;99.90;;;;;;7356422;19;20656;-81
2021/11/19 02:36:55;;;;;;;4.60;3.50;;;8.70;99.90;;;;;;7303526;19;2004451;-81
2021/11/19 02:39:30;;;;;;;3.90;3.45;;;8.70;99.90;;;;;;7349344;19;20433;-81
2021/11/19 02:42:29;;;;;;;3.63;3.33;;;8.70;99.90;;;;;;7356183;19;20324;-80
2021/11/19 02:45:26;;;;;;;3.70;3.30;;;8.70;99.90;;;;;;7399195;19;20380;-81
2021/11/19 02:48:28;;;;;;;7.50;3.70;;;8.80;99.90;;;;;;7289268;19;20308;-81
2021/11/19 02:51:10;;;;;;;3.60;3.30;;;8.70;99.90;;;;;;7274327;19;2004238;-80
2021/11/19 02:53:42;;;;;;;3.60;3.30;;;8.70;99.90;;;;;;7378394;19;20312;-80
2021/11/19 02:56:31;;;;;;;6.38;3.58;;;8.80;99.90;;;;;;7347126;19;20316;-80
2021/11/19 02:59:04;;;;;;;5.38;3.60;;;8.80;99.90;;;;;;7350853;19;20332;-81
2021/11/19 03:02:13;;;;;;;4.97;3.42;;;8.60;99.90;;;;;;7409353;19;20341;-81
2021/11/19 03:08:16;;;;;;;6.40;3.30;;;8.70;99.90;;;;;;7380547;19;20364;-80
2021/11/19 03:10:47;;;;;;;4.80;3.65;;;8.70;99.90;;;;;;7384872;19;20319;-81
2021/11/19 03:13:18;;;;;;;4.97;3.70;;;8.80;99.90;;;;;;7362627;19;20473;-80
2021/11/19 03:16:01;;;;;;;4.33;3.70;;;8.70;99.90;;;;;;7275456;19;2004463;-80
2021/11/19 03:18:42;;;;;;;4.47;3.53;;;8.80;99.90;;;;;;7383937;19;20379;-80
2021/11/19 03:21:12;;;;;;;4.97;3.53;;;8.80;99.90;;;;;;7294821;19;2004443;-80
2021/11/19 03:23:55;;;;;;;3.43;3.13;;;8.70;99.90;;;;;;7350970;19;20365;-81
2021/11/19 03:26:29;;;;;;;4.30;3.88;;;8.80;99.90;;;;;;7269272;19;2004405;-80
2021/11/19 03:29:06;;;;;;;4.57;3.72;;;8.90;99.90;;;;;;7360526;19;20329;-80
2021/11/19 03:31:38;;;;;;;4.18;3.72;;;8.90;99.90;;;;;;7387074;19;20332;-80
2021/11/19 03:34:29;;;;;;;5.50;4.07;;;8.90;99.90;;;;;;7408394;19;20395;-81
2021/11/19 03:36:59;;;;;;;5.57;3.83;;;8.90;99.90;;;;;;7364645;19;20340;-80
2021/11/19 03:39:30;;;;;;;5.03;3.83;;;9.00;99.90;;;;;;7408920;19;20316;-81
2021/11/19 03:42:00;;;;;;;4.30;3.90;;;8.90;99.90;;;;;;7283333;19;2004673;-81
2021/11/19 03:48:27;;;;;;;5.07;3.97;;;9.00;99.90;;;;;;7313333;19;2004460;-80
2021/11/19 03:53:52;;;;;;;5.38;3.88;;;9.10;99.90;;;;;;7300020;19;2004631;-79
2021/11/19 03:56:40;;;;;;;5.43;3.83;;;9.10;99.90;;;;;;7302810;19;2004604;-81
2021/11/19 03:59:14;;;;;;;4.70;3.40;;;9.10;99.90;;;;;;7303628;19;2004279;-81
2021/11/19 04:02:02;;;;;;;4.68;3.78;;;9.00;99.90;;;;;;7390958;19;20353;-81
2021/11/19 04:04:34;;;;;;;4.63;3.70;;;9.10;99.90;;;;;;7323823;19;20320;-80
2021/11/19 04:07:23;;;;;;;3.67;3.35;;;9.10;99.90;;;;;;7366774;19;20309;-79
2021/11/19 04:09:52;;;;;;;4.97;4.05;;;9.10;99.90;;;;;;7402989;19;20336;-80
2021/11/19 04:12:24;;;;;;;3.90;3.50;;;9.10;99.90;;;;;;7410632;19;20312;-80
2021/11/19 04:15:10;;;;;;;4.53;3.47;;;9.10;99.90;;;;;;7406676;19;20304;-81
2021/11/19 04:17:43;;;;;;;5.40;3.67;;;9.10;99.90;;;;;;7393766;19;20356;-81
2021/11/19 04:20:14;;;;;;;4.30;3.22;;;9.10;99.90;;;;;;7389935;19;20758;-81
2021/11/19 04:22:47;;;;;;;4.70;3.50;;;9.10;99.90;;;;;;7386494;19;20320;-80
2021/11/19 04:25:18;;;;;;;4.28;3.50;;;9.10;99.90;;;;;;7310053;19;2004439;-81
2021/11/19 04:27:53;;;;;;;4.22;3.70;;;9.10;99.90;;;;;;7303086;19;2005369;-80
2021/11/19 04:33:57;;;;;;;4.35;3.63;;;9.00;99.90;;;;;;7405643;19;20312;-81
2021/11/19 04:36:35;;;;;;;3.85;3.45;;;9.10;99.90;;;;;;7414329;19;20348;-80
2021/11/19 04:42:24;;;;;;;5.38;3.95;;;9.00;99.90;;;;;;7201463;19;2004272;-81
2021/11/19 04:44:58;;;;;;;5.32;3.83;;;9.00;99.90;;;;;;7360028;19;20324;-81
2021/11/19 04:47:31;;;;;;;4.07;3.75;;;9.00;99.90;;;;;;7359374;19;20329;-81
2021/11/19 04:49:59;;;;;;;6.17;4.13;;;9.00;99.90;;;;;;7382843;19;20347;-81
2021/11/19 04:56:10;;;;;;;5.07;4.30;;;8.90;99.90;;;;;;7427014;19;20342;-80
2021/11/19 04:58:48;;;;;;;6.20;4.10;;;8.80;99.90;;;;;;7393804;19;20336;-81
2021/11/19 05:45:16;;;;;;;6.45;5.45;;;8.80;99.90;;;;;;7341995;19;20358;-77
2021/11/19 05:48:38;;;;;;;6.47;5.00;;;8.90;99.90;;;;;;7353844;19;20414;-79
2021/11/19 05:51:16;;;;;;;5.85;4.72;;;8.80;99.90;;;;;;7399842;19;20323;-78
2021/11/19 05:53:57;;;;;;;5.40;4.55;;;8.80;99.90;;;;;;7338315;19;20755;-79
2021/11/19 05:56:32;;;;;;;7.20;4.90;;;8.90;99.90;;;;;;7392399;19;20313;-78
2021/11/19 05:59:08;;;;;;;4.97;4.47;;;8.90;99.90;;;;;;7384418;19;20345;-79
2021/11/19 06:02:36;;;;;;;5.33;4.83;;;8.90;99.90;;;;;;7257568;19;2004465;-79
2021/11/19 06:05:24;;;;;;;5.47;4.97;;;8.90;99.90;;;;;;7301682;19;2004477;-79
2021/11/19 06:07:59;;;;;;;5.65;4.95;;;8.90;99.90;;;;;;7371526;19;20324;-79
2021/11/19 06:10:31;;;;;;;6.53;5.40;;;8.90;99.90;;;;;;7405074;19;20348;-79
2021/11/19 06:13:04;;;;;;;5.57;4.93;;;8.90;99.90;;;;;;7377631;19;20335;-79
2021/11/19 06:15:35;;;;;;;5.50;5.00;;;8.90;99.90;;;;;;7350649;19;20360;-79
2021/11/19 06:18:36;;;;;;;5.10;4.55;;;9.00;99.90;;;;;;7343895;19;20374;-79
2021/11/19 06:21:14;;;;;;;7.10;5.07;;;8.80;99.90;;;;;;7376083;19;20320;-79
2021/11/19 06:24:22;;;;;;;7.05;5.30;;;9.00;99.90;;;;;;7374352;19;20336;-79
2021/11/19 06:26:58;;;;;;;7.78;5.43;;;9.00;99.90;;;;;;7256887;19;2004413;-79
2021/11/19 06:29:43;;;;;;;5.53;4.90;;;9.00;99.90;;;;;;7381818;19;20344;-79
2021/11/19 06:32:35;;;;;;;5.28;4.78;;;9.10;99.90;;;;;;7377699;19;20332;-79
2021/11/19 06:35:28;;;;;;;5.27;4.77;;;9.10;99.90;;;;;;7258324;19;2004547;-82
2021/11/19 06:38:17;;;;;;;5.05;4.55;;;9.20;99.90;;;;;;7281670;19;2004191;-79
2021/11/19 06:41:23;;;;;;;5.95;4.80;;;9.20;99.90;;;;;;7355214;19;20316;-79
2021/11/19 06:44:44;;;;;;;5.27;4.73;;;9.20;99.90;;;;;;7359341;19;20325;-78
2021/11/19 06:47:29;;;;;;;5.70;4.55;;;9.20;99.90;;;;;;7322973;19;20329;-78
2021/11/19 06:50:24;;;;;;;7.00;4.35;;;9.20;99.90;;;;;;7233721;19;2004517;-79
2021/11/19 07:15:53;;;;;;;6.03;5.00;;;9.30;99.90;;;;;;7344755;19;20331;-80
2021/11/19 07:19:23;;;;;;;5.25;4.75;;;9.30;99.90;;;;;;7257649;19;20336;-80
2021/11/19 07:21:53;;;;;;;5.63;4.60;;;9.40;99.90;;;;;;7263295;19;2004560;-78
2021/11/19 07:24:20;;;;;;;4.95;4.43;;;9.50;99.90;;;;;;7354476;19;20312;-80
2021/11/19 07:26:48;;;;;;;5.50;4.90;;;9.40;99.90;;;;;;7380403;19;20324;-79
2021/11/19 07:29:19;;;;;;;4.88;4.47;;;9.40;99.90;;;;;;7360018;19;20855;-79
2021/11/19 07:32:18;;;;;;;4.57;4.17;;;9.40;99.90;;;;;;7259025;19;2004498;-79
2021/11/19 07:35:22;;;;;;;4.40;4.10;;;9.50;99.90;;;;;;7259522;19;2004538;-79
2021/11/19 07:38:09;;;;;;;5.43;4.53;;;9.50;99.90;;;;;;7235958;19;2004490;-79
2021/11/19 07:40:52;;;;;;;4.20;3.80;;;9.60;99.90;;;;;;7370409;19;20320;-78
2021/11/19 07:43:30;;;;;;;4.50;4.10;;;9.60;99.90;;;;;;7324175;19;20304;-78
2021/11/19 07:46:20;;;;;;;5.05;4.10;;;9.70;99.90;;;;;;7366966;19;20366;-79
2021/11/19 07:48:52;;;;;;;4.43;4.03;;;9.70;99.90;;;;;;7373930;19;20305;-78
2021/11/19 07:51:31;;;;;;;4.70;4.20;;;9.70;99.90;;;;;;7371469;19;20853;-78
2021/11/19 07:54:04;;;;;;;4.25;3.85;;;9.60;99.90;;;;;;7390845;19;27394;-80
2021/11/19 12:56:36;;;;;;;3.20;2.90;;;10.60;99.90;;;;;;7400796;19;20353;-89
2021/11/19 12:59:18;;;;;;;3.27;2.97;;;10.60;99.90;;;;;;7398188;19;20360;-90
2021/11/19 13:05:10;;;;;;;2.85;2.65;;;10.70;99.90;;;;;;7411344;19;20317;-90
2021/11/19 13:08:12;;;;;;;2.85;2.65;;;10.70;99.90;;;;;;7420615;19;20296;-91
2021/11/19 13:11:32;;;;;;;2.83;2.63;;;10.70;99.90;;;;;;7402405;19;20312;-89
2021/11/19 13:14:24;;;;;;;3.42;2.83;;;10.80;99.90;;;;;;7318841;19;2004294;-85
2021/11/19 13:16:54;;;;;;;2.25;2.15;;;10.80;99.90;;;;;;7417009;19;20333;-88
2021/11/19 13:19:35;;;;;;;2.67;2.47;;;10.80;99.90;;;;;;7416718;19;20325;-88
2021/11/19 13:22:19;;;;;;;2.60;2.40;;;10.80;99.90;;;;;;7418557;19;20337;-90
2021/11/19 13:24:46;;;;;;;2.73;2.53;;;10.80;99.90;;;;;;7417269;19;20384;-89
2021/11/19 13:27:12;;;;;;;2.85;2.55;;;10.90;99.90;;;;;;7418385;19;20320;-90
2021/11/19 13:29:38;;;;;;;3.50;2.77;;;10.80;99.90;;;;;;7416297;19;20367;-87
2021/11/19 13:35:25;;;;;;;2.30;2.10;;;10.80;99.90;;;;;;7362713;19;20304;-91
2021/11/19 13:41:15;;;;;;;2.47;2.28;;;10.80;99.90;;;;;;7315598;19;2008287;-90
2021/11/19 13:43:47;;;;;;;2.47;2.28;;;11.00;99.90;;;;;;7314259;19;2019622;-90
2021/11/19 13:49:33;;;;;;;2.50;2.30;;;10.90;99.90;;;;;;7412592;19;20332;-90
2021/11/19 13:52:08;;;;;;;3.22;2.42;;;10.90;99.90;;;;;;7417871;19;20336;-91
2021/11/19 13:54:37;;;;;;;2.20;2.10;;;10.90;99.90;;;;;;7417883;19;20321;-91
2021/11/19 13:57:11;;;;;;;2.80;2.60;;;10.80;99.90;;;;;;7418473;19;20333;-89
2021/11/19 14:02:59;;;;;;;2.25;2.05;;;10.90;99.90;;;;;;7405208;19;20363;-87
2021/11/19 14:05:48;;;;;;;2.72;2.53;;;10.90;99.90;;;;;;7420561;19;20305;-87
2021/11/19 14:08:17;;;;;;;2.75;2.55;;;10.90;99.90;;;;;;7313577;19;2004916;-90
2021/11/19 14:11:16;;;;;;;3.13;2.65;;;10.90;99.90;;;;;;7417099;19;20321;-88
2021/11/19 14:13:44;;;;;;;2.70;2.50;;;10.90;99.90;;;;;;7416207;19;20353;-91
2021/11/19 14:16:24;;;;;;;2.63;2.33;;;10.90;99.90;;;;;;7419279;19;20356;-90
2021/11/19 14:19:22;;;;;;;2.35;2.15;;;10.90;99.90;;;;;;7418939;19;20348;-91
2021/11/19 14:22:00;;;;;;;2.97;2.30;;;10.90;99.90;;;;;;7316110;19;2004447;-89
2021/11/19 14:25:01;;;;;;;2.33;2.13;;;10.90;99.90;;;;;;7418255;19;20328;-90
2021/11/19 14:27:29;;;;;;;2.13;2.03;;;11.00;99.90;;;;;;7315777;19;2004364;-89
2021/11/19 14:29:57;;;;;;;2.85;2.33;;;11.00;99.90;;;;;;7418634;19;20356;-91
2021/11/19 14:32:41;;;;;;;2.72;2.33;;;10.90;99.90;;;;;;7418856;19;20345;-90
2021/11/19 14:38:25;;;;;;;3.03;2.75;;;11.00;99.90;;;;;;7415638;19;20380;-90
2021/11/19 14:41:25;;;;;;;3.30;2.75;;;11.00;99.90;;;;;;7421221;19;20333;-90
2021/11/19 14:43:58;;;;;;;3.08;2.55;;;11.00;99.90;;;;;;7313635;19;2007342;-89
2021/11/19 14:46:26;;;;;;;3.15;2.85;;;11.00;99.90;;;;;;7415829;19;20347;-90
2021/11/19 14:49:03;;;;;;;3.30;2.38;;;11.00;99.90;;;;;;7418195;19;20379;-90
2021/11/19 14:51:46;;;;;;;2.63;2.42;;;11.00;99.90;;;;;;7424967;19;20320;-91
2021/11/19 14:54:15;;;;;;;3.30;2.70;;;11.00;99.90;;;;;;7322288;19;2004426;-90
2021/11/19 14:56:53;;;;;;;2.63;2.42;;;11.00;99.90;;;;;;7422019;19;20337;-90
2021/11/19 14:59:24;;;;;;;2.67;2.47;;;11.00;99.90;;;;;;7423381;19;20332;-90
2021/11/19 15:02:02;;;;;;;3.15;2.75;;;11.00;99.90;;;;;;7423810;19;20325;-90
2021/11/19 15:04:39;;;;;;;2.80;2.60;;;11.00;99.90;;;;;;7422907;19;20329;-91
2021/11/19 15:07:23;;;;;;;2.58;2.38;;;11.00;99.90;;;;;;7424520;19;20360;-90
2021/11/19 15:09:53;;;;;;;3.00;2.70;;;11.00;99.90;;;;;;7422263;19;20333;-90
2021/11/19 15:12:44;;;;;;;2.70;2.50;;;11.00;99.90;;;;;;7421465;19;20340;-90
2021/11/19 15:15:29;;;;;;;2.97;2.70;;;10.90;99.90;;;;;;7322243;19;2006740;-90
2021/11/19 15:24:16;;;;;;;2.80;2.60;;;11.00;99.90;;;;;;7419047;19;20297;-91
2021/11/19 15:26:56;;;;;;;2.58;2.38;;;11.00;99.90;;;;;;7426260;19;20352;-92
2021/11/19 15:29:35;;;;;;;3.25;2.80;;;11.00;99.90;;;;;;7307197;19;2004493;-91
2021/11/19 15:32:33;;;;;;;3.13;2.83;;;11.00;99.90;;;;;;7322769;19;2004192;-88
2021/11/19 15:35:15;;;;;;;4.25;2.95;;;11.00;99.90;;;;;;7323875;19;2004790;-91
2021/11/19 15:37:54;;;;;;;3.97;3.50;;;11.00;99.90;;;;;;7424632;19;20364;-91
2021/11/19 15:40:26;;;;;;;3.40;3.10;;;11.00;99.90;;;;;;7422741;19;20333;-92
2021/11/19 15:42:55;;;;;;;3.28;2.97;;;11.00;99.90;;;;;;7424756;19;20329;-90
2021/11/19 15:45:28;;;;;;;2.72;2.53;;;11.00;99.90;;;;;;7418690;19;20349;-93
2021/11/19 15:47:54;;;;;;;2.60;2.40;;;11.00;99.90;;;;;;7422514;19;20325;-92
2021/11/19 15:50:21;;;;;;;3.00;2.75;;;11.00;99.90;;;;;;7419525;19;20321;-91
2021/11/19 15:53:21;;;;;;;2.53;2.33;;;10.90;99.90;;;;;;7422778;19;20338;-92
2021/11/19 15:55:47;;;;;;;2.85;2.65;;;10.90;99.90;;;;;;7317651;19;2004317;-91
2021/11/19 15:58:34;;;;;;;2.50;2.30;;;10.90;99.90;;;;;;7422898;19;20324;-85
2021/11/19 16:01:00;;;;;;;3.47;3.17;;;10.90;99.90;;;;;;7317972;19;2004537;-91
2021/11/19 17:37:51;;;;;;;1.90;1.80;;;11.10;99.90;;;;;;7360757;19;20540;-91
2021/11/19 19:30:35;;;;;;;2.78;2.47;;;10.90;99.90;;;;;;7313166;19;20338;-88
2021/11/19 19:36:10;;;;;;;3.83;2.90;;;10.80;99.90;;;;;;7403393;19;20340;-90
2021/11/19 19:41:56;;;;;;;2.88;2.67;;;10.90;99.90;;;;;;7409003;19;20352;-93
2021/11/19 19:44:23;;;;;;;4.55;2.85;;;10.80;99.90;;;;;;7425883;19;20333;-91
2021/11/19 19:46:50;;;;;;;3.38;2.33;;;10.80;99.90;;;;;;7425893;19;20325;-90
2021/11/19 19:49:24;;;;;;;3.08;2.78;;;10.80;99.90;;;;;;7411565;19;20341;-91
2021/11/19 19:51:53;;;;;;;3.45;2.90;;;10.90;99.90;;;;;;7423561;19;20348;-90
2021/11/19 19:54:23;;;;;;;2.72;2.53;;;10.80;99.90;;;;;;7426030;19;20329;-90
2021/11/19 19:56:50;;;;;;;3.40;3.10;;;10.70;99.90;;;;;;7424338;19;20342;-90
2021/11/19 19:59:18;;;;;;;2.83;2.58;;;10.70;99.90;;;;;;7424571;19;20348;-92
2021/11/19 20:07:39;;;;;;;3.70;2.70;;;10.70;99.90;;;;;;7417705;19;20320;-90
2021/11/19 20:25:23;;;;;;;3.63;2.67;;;10.60;99.90;;;;;;7392118;19;20349;-92
2021/11/19 20:27:51;;;;;;;2.70;2.50;;;10.60;99.90;;;;;;7404689;19;20344;-87
2021/11/19 20:30:19;;;;;;;2.85;2.65;;;10.60;99.90;;;;;;7405399;19;20355;-89
2021/11/19 20:32:45;;;;;;;3.80;2.70;;;10.60;99.90;;;;;;7420530;19;20377;-90
2021/11/19 20:38:16;;;;;;;2.70;2.50;;;10.60;99.90;;;;;;7409143;19;20324;-91
2021/11/19 20:40:42;;;;;;;2.53;2.33;;;10.60;99.90;;;;;;7421972;19;20300;-90
2021/11/19 20:43:08;;;;;;;3.05;2.75;;;10.70;99.90;;;;;;7423703;19;20339;-87
2021/11/19 20:45:43;;;;;;;3.00;2.67;;;10.60;99.90;;;;;;7423800;19;20324;-90
2021/11/19 20:48:09;;;;;;;2.78;2.53;;;10.60;99.90;;;;;;7314377;19;2004400;-90
2021/11/19 20:50:34;;;;;;;2.78;2.53;;;10.60;99.90;;;;;;7421945;19;20344;-89
2021/11/19 20:53:04;;;;;;;2.63;2.42;;;10.70;99.90;;;;;;7419810;19;20413;-90
2021/11/19 20:55:33;;;;;;;2.45;2.25;;;10.80;99.90;;;;;;7401841;19;20339;-90
2021/11/19 20:58:00;;;;;;;3.00;2.30;;;10.70;99.90;;;;;;7420138;19;20365;-91
2021/11/19 21:00:28;;;;;;;2.90;2.60;;;10.70;99.90;;;;;;7421356;19;20360;-88
2021/11/19 21:02:54;;;;;;;2.45;2.25;;;10.70;99.90;;;;;;7421486;19;20346;-91
2021/11/19 21:05:27;;;;;;;2.50;2.25;;;10.70;99.90;;;;;;7418889;19;20341;-90
2021/11/19 21:07:53;;;;;;;2.28;2.17;;;10.70;99.90;;;;;;7419601;19;20345;-89
2021/11/19 21:10:20;;;;;;;3.15;2.70;;;10.70;99.90;;;;;;7421059;19;20340;-90
2021/11/19 21:12:48;;;;;;;2.60;2.40;;;10.70;99.90;;;;;;7422831;19;20369;-91
2021/11/19 21:15:20;;;;;;;3.50;3.20;;;10.70;99.90;;;;;;7421996;19;20337;-86
2021/11/19 21:17:45;;;;;;;2.57;2.37;;;10.70;99.90;;;;;;7420616;19;20340;-93
2021/11/19 21:28:59;;;;;;;3.00;2.50;;;10.70;99.90;;;;;;7402582;19;20328;-89
2021/11/19 21:31:35;;;;;;;2.75;2.15;;;10.70;99.90;;;;;;7422946;19;20329;-89
2021/11/19 21:34:06;;;;;;;3.97;2.58;;;10.80;99.90;;;;;;7421819;19;20336;-88
2021/11/19 21:36:35;;;;;;;2.60;2.40;;;10.80;99.90;;;;;;7419465;19;20366;-91
2021/11/19 21:39:04;;;;;;;2.63;2.43;;;10.80;99.90;;;;;;7420649;19;20308;-90
2021/11/19 21:41:31;;;;;;;2.53;2.33;;;10.80;99.90;;;;;;7421749;19;20341;-90
2021/11/19 21:43:59;;;;;;;4.22;2.92;;;10.80;99.90;;;;;;7420925;19;20439;-88
2021/11/19 21:46:25;;;;;;;2.97;2.67;;;10.90;99.90;;;;;;7420727;19;20334;-89
2021/11/19 21:48:51;;;;;;;4.57;2.95;;;10.80;99.90;;;;;;7420158;19;20352;-91
2021/11/19 21:51:20;;;;;;;3.58;2.67;;;10.80;99.90;;;;;;7419819;19;20345;-90
2021/11/19 21:53:50;;;;;;;2.97;2.67;;;10.80;99.90;;;;;;7418049;19;20293;-90
2021/11/19 21:56:32;;;;;;;3.10;2.90;;;10.90;99.90;;;;;;7417359;19;20344;-91
2021/11/19 21:58:58;;;;;;;2.58;2.35;;;10.80;99.90;;;;;;7416755;19;20325;-91
2021/11/19 22:01:28;;;;;;;4.67;3.00;;;10.80;99.90;;;;;;7420130;19;20361;-90
2021/11/19 22:03:56;;;;;;;4.25;2.92;;;10.80;99.90;;;;;;7400182;19;20352;-90
2021/11/19 22:06:23;;;;;;;2.75;2.50;;;10.80;99.90;;;;;;7419975;19;20312;-90
2021/11/19 22:08:49;;;;;;;3.55;2.78;;;10.90;99.90;;;;;;7421035;19;20384;-92
2021/11/19 22:11:16;;;;;;;4.53;2.75;;;10.90;99.90;;;;;;7419710;19;20360;-90
2021/11/19 22:13:43;;;;;;;4.43;3.13;;;10.90;99.90;;;;;;7418999;19;20340;-90
2021/11/19 22:16:10;;;;;;;5.18;3.28;;;10.90;99.90;;;;;;7419822;19;20336;-89
2021/11/19 22:18:40;;;;;;;4.13;3.00;;;10.90;99.90;;;;;;7418931;19;20416;-87
2021/11/19 22:21:08;;;;;;;3.88;2.90;;;10.80;99.90;;;;;;7421741;19;20332;-91
2021/11/19 22:23:34;;;;;;;3.22;2.92;;;10.90;99.90;;;;;;7398404;19;20471;-91
2021/11/19 22:26:00;;;;;;;4.43;3.30;;;10.90;99.90;;;;;;7420024;19;20380;-90
2021/11/19 22:28:28;;;;;;;3.13;2.83;;;10.90;99.90;;;;;;7422250;19;20348;-91
2021/11/19 22:30:58;;;;;;;5.10;3.15;;;10.80;99.90;;;;;;7420248;19;20367;-91
2021/11/19 22:33:24;;;;;;;6.30;3.67;;;10.90;99.90;;;;;;7419435;19;20404;-92
2021/11/19 22:35:50;;;;;;;3.30;3.00;;;10.90;99.90;;;;;;7418586;19;20355;-91
2021/11/19 22:38:21;;;;;;;3.80;3.50;;;10.90;99.90;;;;;;7419301;19;20297;-87
2021/11/19 22:40:49;;;;;;;4.07;3.22;;;10.90;99.90;;;;;;7418178;19;20343;-90
2021/11/19 22:43:18;;;;;;;3.50;3.20;;;10.90;99.90;;;;;;7419289;19;20324;-91
2021/11/19 22:45:49;;;;;;;3.85;3.05;;;10.90;99.90;;;;;;7417421;19;20353;-90
2021/11/19 22:48:15;;;;;;;3.53;2.83;;;10.90;99.90;;;;;;7418811;19;20327;-91
2021/11/19 22:50:48;;;;;;;3.45;2.88;;;10.80;99.90;;;;;;7418427;19;20360;-90
2021/11/19 22:53:14;;;;;;;3.33;2.70;;;10.90;99.90;;;;;;7419702;19;20351;-90
2021/11/19 22:55:41;;;;;;;3.03;2.83;;;10.90;99.90;;;;;;7420359;19;20308;-89
2021/11/19 22:58:07;;;;;;;4.03;3.05;;;10.90;99.90;;;;;;7413858;19;20331;-90
2021/11/19 23:01:01;;;;;;;2.75;2.55;;;10.90;99.90;;;;;;7419624;19;20361;-91
2021/11/19 23:03:28;;;;;;;3.53;3.15;;;10.90;99.90;;;;;;7420298;19;20328;-93
2021/11/19 23:18:07;;;;;;;4.18;2.67;;;10.80;99.90;;;;;;7422953;19;20332;-91
2021/11/19 23:20:37;;;;;;;3.60;3.05;;;10.80;99.90;;;;;;7418435;19;20352;-91
2021/11/19 23:23:07;;;;;;;5.40;2.83;;;10.80;99.90;;;;;;7426910;19;20350;-94
2021/11/19 23:25:35;;;;;;;3.38;3.08;;;10.70;99.90;;;;;;7425472;19;20317;-92
2021/11/19 23:28:02;;;;;;;3.88;3.17;;;10.80;99.90;;;;;;7426498;19;20356;-91
2021/11/19 23:30:35;;;;;;;3.80;3.38;;;10.70;99.90;;;;;;7421546;19;20365;-91
2021/11/19 23:33:02;;;;;;;4.10;3.33;;;10.70;99.90;;;;;;7425237;19;20354;-92
2021/11/19 23:35:32;;;;;;;3.30;3.00;;;10.70;99.90;;;;;;7422924;19;20341;-91
2021/11/19 23:38:01;;;;;;;3.75;3.25;;;10.70;99.90;;;;;;7421504;19;20324;-92
2021/11/19 23:40:30;;;;;;;3.10;2.80;;;10.70;99.90;;;;;;7421283;19;20363;-91
2021/11/19 23:42:59;;;;;;;3.70;3.20;;;10.80;99.90;;;;;;7425110;19;20336;-92
2021/11/19 23:45:34;;;;;;;3.25;2.90;;;10.80;99.90;;;;;;7423782;19;20351;-94
2021/11/19 23:48:01;;;;;;;3.38;3.05;;;10.70;99.90;;;;;;7422759;19;20336;-92
2021/11/19 23:50:27;;;;;;;7.60;3.40;;;10.80;99.90;;;;;;7421833;19;20352;-91
2021/11/19 23:52:53;;;;;;;3.60;3.30;;;10.80;99.90;;;;;;7424481;19;20300;-91
2021/11/19 23:55:20;;;;;;;3.80;3.42;;;10.80;99.90;;;;;;7422841;19;20392;-92
2021/11/19 23:57:46;;;;;;;3.83;3.42;;;10.80;99.90;;;;;;7422886;19;20351;-91
